Time;durP1;ratioP1;P1;durP2;ratioP2;P2;SDS_P1;SDS_P2;PMS_P1;PMS_P2;Temp;Humidity;BMP_temperature;BMP_pressure;BME280_temperature;BME280_humidity;BME280_pressure;Samples;Min_cycle;Max_cycle;Signal;HPM_P1;HPM_P2
2023/08/03 00:00:56;;;;;;;2.08;0.60;;;;;;;;;;6277053;22;20388;-85
2023/08/03 00:03:22;;;;;;;2.35;0.70;;;;;;;;;;6304596;22;20011;-84
2023/08/03 00:05:48;;;;;;;1.75;0.70;;;;;;;;;;6305300;22;20015;-84
2023/08/03 00:08:14;;;;;;;2.25;0.77;;;;;;;;;;6303800;22;20011;-84
2023/08/03 00:10:40;;;;;;;1.42;0.60;;;;;;;;;;6277754;22;20030;-84
2023/08/03 00:13:06;;;;;;;1.95;0.70;;;;;;;;;;6276519;22;20019;-84
2023/08/03 00:15:32;;;;;;;2.00;0.60;;;;;;;;;;6277549;22;20046;-83
2023/08/03 00:17:58;;;;;;;1.00;0.60;;;;;;;;;;6276802;22;20015;-84
2023/08/03 00:20:24;;;;;;;0.88;0.57;;;;;;;;;;6277232;22;20015;-84
2023/08/03 00:22:50;;;;;;;1.58;0.70;;;;;;;;;;6276432;22;20058;-84
2023/08/03 00:25:16;;;;;;;2.80;0.90;;;;;;;;;;6276941;22;20030;-84
2023/08/03 00:27:42;;;;;;;0.65;0.50;;;;;;;;;;6277334;22;20064;-83
2023/08/03 00:30:09;;;;;;;2.15;0.60;;;;;;;;;;6303196;22;20026;-84
2023/08/03 00:32:35;;;;;;;1.17;0.50;;;;;;;;;;6251856;22;20086;-84
2023/08/03 00:35:01;;;;;;;1.30;0.45;;;;;;;;;;6304400;22;20011;-84
2023/08/03 00:37:27;;;;;;;1.27;1.05;;;;;;;;;;6303529;22;20038;-85
2023/08/03 00:39:53;;;;;;;1.05;0.55;;;;;;;;;;6304708;22;20022;-85
2023/08/03 00:42:19;;;;;;;1.13;0.40;;;;;;;;;;6277189;22;20023;-85
2023/08/03 00:44:45;;;;;;;1.15;0.65;;;;;;;;;;6305101;22;20026;-86
2023/08/03 00:47:11;;;;;;;1.73;0.50;;;;;;;;;;6303501;22;20011;-85
2023/08/03 00:49:37;;;;;;;0.60;0.43;;;;;;;;;;6277599;22;20321;-85
2023/08/03 00:52:03;;;;;;;0.65;0.50;;;;;;;;;;6303452;22;20091;-85
2023/08/03 00:54:29;;;;;;;0.47;0.38;;;;;;;;;;6277176;22;20371;-85
2023/08/03 00:56:55;;;;;;;0.63;0.38;;;;;;;;;;6304301;22;20086;-86
2023/08/03 00:59:22;;;;;;;2.15;0.77;;;;;;;;;;6276969;22;20042;-84
2023/08/03 01:01:48;;;;;;;0.47;0.40;;;;;;;;;;6304741;22;20376;-85
2023/08/03 01:04:14;;;;;;;0.43;0.40;;;;;;;;;;6304472;22;20019;-85
2023/08/03 01:06:40;;;;;;;1.40;0.50;;;;;;;;;;6303653;22;20022;-85
2023/08/03 01:09:06;;;;;;;1.05;0.40;;;;;;;;;;6304040;22;20054;-85
2023/08/03 01:11:32;;;;;;;0.43;0.35;;;;;;;;;;6250292;22;20015;-84
2023/08/03 01:13:58;;;;;;;1.23;0.60;;;;;;;;;;6275717;22;20019;-85
2023/08/03 01:16:24;;;;;;;1.75;0.45;;;;;;;;;;6303825;22;20444;-84
2023/08/03 01:18:51;;;;;;;1.80;0.55;;;;;;;;;;6276466;22;20102;-85
2023/08/03 01:21:18;;;;;;;2.78;0.68;;;;;;;;;;6302742;22;20090;-85
2023/08/03 01:23:44;;;;;;;1.23;0.63;;;;;;;;;;6304070;22;20026;-84
2023/08/03 01:26:10;;;;;;;0.40;0.40;;;;;;;;;;6303629;22;20019;-85
2023/08/03 01:28:36;;;;;;;1.08;0.38;;;;;;;;;;6277472;22;20015;-85
2023/08/03 01:31:02;;;;;;;1.23;0.30;;;;;;;;;;6276287;22;20064;-85
2023/08/03 01:33:28;;;;;;;0.95;0.40;;;;;;;;;;6304168;22;20102;-86
2023/08/03 01:35:55;;;;;;;3.83;0.63;;;;;;;;;;6302789;22;20019;-85
2023/08/03 01:38:21;;;;;;;0.40;0.32;;;;;;;;;;6275789;22;20098;-86
2023/08/03 01:40:47;;;;;;;0.63;0.30;;;;;;;;;;6276157;22;20015;-85
2023/08/03 01:43:13;;;;;;;2.20;0.32;;;;;;;;;;6303741;22;20379;-86
2023/08/03 01:45:39;;;;;;;0.28;0.28;;;;;;;;;;6276596;22;20448;-86
2023/08/03 01:48:05;;;;;;;2.40;0.50;;;;;;;;;;6276216;22;20019;-86
2023/08/03 01:50:31;;;;;;;0.98;0.30;;;;;;;;;;6275987;22;20022;-86
2023/08/03 01:52:57;;;;;;;0.47;0.40;;;;;;;;;;6303064;22;20015;-85
2023/08/03 01:55:23;;;;;;;1.17;0.98;;;;;;;;;;6276174;22;20015;-85
2023/08/03 01:57:49;;;;;;;0.75;0.50;;;;;;;;;;6277085;22;20011;-86
2023/08/03 02:00:15;;;;;;;0.80;0.40;;;;;;;;;;6303420;22;20015;-85
2023/08/03 02:02:41;;;;;;;0.82;0.35;;;;;;;;;;6304387;22;20015;-86
2023/08/03 02:05:07;;;;;;;1.70;0.60;;;;;;;;;;6302979;22;20015;-86
2023/08/03 02:07:42;;;;;;;1.30;0.40;;;;;;;;;;6303778;22;20015;-86
2023/08/03 02:10:08;;;;;;;0.60;0.50;;;;;;;;;;6303088;22;20365;-86
2023/08/03 02:12:34;;;;;;;0.43;0.43;;;;;;;;;;6304580;22;20015;-86
2023/08/03 02:15:00;;;;;;;1.38;0.60;;;;;;;;;;6303761;22;20026;-86
2023/08/03 02:17:28;;;;;;;1.58;0.70;;;;;;;;;;6303151;22;20086;-86
2023/08/03 02:19:55;;;;;;;0.50;0.45;;;;;;;;;;6303981;22;20080;-88
2023/08/03 02:22:21;;;;;;;0.90;0.60;;;;;;;;;;6304901;22;20015;-89
2023/08/03 02:24:47;;;;;;;1.52;0.60;;;;;;;;;;6305091;22;20012;-88
2023/08/03 02:27:13;;;;;;;1.13;0.52;;;;;;;;;;6303889;22;20069;-88
2023/08/03 02:29:39;;;;;;;0.60;0.47;;;;;;;;;;6276981;22;20022;-88
2023/08/03 02:32:05;;;;;;;1.45;0.80;;;;;;;;;;6303356;22;20015;-88
2023/08/03 02:34:31;;;;;;;0.60;0.60;;;;;;;;;;6305071;22;20011;-89
2023/08/03 02:36:57;;;;;;;0.40;0.40;;;;;;;;;;6304739;22;20038;-88
2023/08/03 02:39:23;;;;;;;2.08;0.80;;;;;;;;;;6304106;22;20369;-89
2023/08/03 02:41:49;;;;;;;1.90;0.80;;;;;;;;;;6304626;22;20061;-88
2023/08/03 02:44:15;;;;;;;1.70;0.95;;;;;;;;;;6303749;22;20023;-88
2023/08/03 02:46:41;;;;;;;1.50;1.10;;;;;;;;;;6276989;22;20076;-89
2023/08/03 02:49:07;;;;;;;1.80;1.50;;;;;;;;;;6276984;22;20022;-87
2023/08/03 02:51:33;;;;;;;3.45;1.90;;;;;;;;;;6304827;22;20013;-87
2023/08/03 02:53:59;;;;;;;3.92;1.60;;;;;;;;;;6303841;22;20064;-88
2023/08/03 02:56:25;;;;;;;1.77;1.67;;;;;;;;;;6304612;22;20012;-87
2023/08/03 02:58:51;;;;;;;2.40;1.60;;;;;;;;;;6276432;22;20015;-87
2023/08/03 03:01:19;;;;;;;3.10;1.67;;;;;;;;;;6303185;22;20015;-87
2023/08/03 03:03:45;;;;;;;4.47;1.90;;;;;;;;;;6304470;22;20015;-87
2023/08/03 03:06:11;;;;;;;2.58;1.77;;;;;;;;;;6303744;22;20146;-87
2023/08/03 03:08:37;;;;;;;1.90;1.60;;;;;;;;;;6304671;22;20062;-87
2023/08/03 03:11:03;;;;;;;3.95;2.20;;;;;;;;;;6303277;22;20341;-87
2023/08/03 03:13:29;;;;;;;2.47;1.90;;;;;;;;;;6303945;22;20022;-87
2023/08/03 03:15:55;;;;;;;5.20;2.20;;;;;;;;;;6303075;22;20056;-87
2023/08/03 03:18:21;;;;;;;3.08;1.83;;;;;;;;;;6276297;22;20090;-86
2023/08/03 03:20:47;;;;;;;3.08;1.95;;;;;;;;;;6304276;22;20058;-86
2023/08/03 03:23:13;;;;;;;3.53;2.63;;;;;;;;;;6302069;22;20011;-87
2023/08/03 03:25:39;;;;;;;4.03;1.73;;;;;;;;;;6304062;22;20082;-87
2023/08/03 03:28:05;;;;;;;3.67;1.92;;;;;;;;;;6276673;22;20022;-88
2023/08/03 03:30:31;;;;;;;4.85;2.22;;;;;;;;;;6303839;22;20011;-88
2023/08/03 03:32:57;;;;;;;4.28;2.05;;;;;;;;;;6303854;22;20332;-88
2023/08/03 03:35:23;;;;;;;5.38;2.40;;;;;;;;;;6276636;22;20455;-88
2023/08/03 03:37:49;;;;;;;4.28;2.33;;;;;;;;;;6276804;22;20150;-87
2023/08/03 03:40:15;;;;;;;4.10;2.08;;;;;;;;;;6303486;22;20049;-87
2023/08/03 03:42:41;;;;;;;3.33;1.70;;;;;;;;;;6277387;22;20475;-87
2023/08/03 03:45:08;;;;;;;3.50;2.15;;;;;;;;;;6274979;22;20050;-87
2023/08/03 03:47:34;;;;;;;2.97;1.88;;;;;;;;;;6276490;22;20012;-89
2023/08/03 03:50:00;;;;;;;6.35;2.42;;;;;;;;;;6276213;22;20022;-88
2023/08/03 03:52:26;;;;;;;4.30;2.28;;;;;;;;;;6276448;22;20015;-88
2023/08/03 03:54:52;;;;;;;5.95;1.90;;;;;;;;;;6300428;22;20011;-88
2023/08/03 03:57:18;;;;;;;6.95;2.22;;;;;;;;;;6274616;22;20094;-91
2023/08/03 03:59:44;;;;;;;6.60;2.08;;;;;;;;;;6304466;22;20386;-88
2023/08/03 04:02:10;;;;;;;5.18;2.70;;;;;;;;;;6303587;22;20090;-87
2023/08/03 04:04:36;;;;;;;5.80;1.65;;;;;;;;;;6277108;22;20086;-89
2023/08/03 04:07:02;;;;;;;7.70;1.77;;;;;;;;;;6307163;22;20055;-88
2023/08/03 04:09:28;;;;;;;3.67;1.73;;;;;;;;;;6309787;22;20438;-88
2023/08/03 04:11:54;;;;;;;5.53;1.52;;;;;;;;;;6312018;22;20455;-88
2023/08/03 04:14:20;;;;;;;6.25;1.90;;;;;;;;;;6320972;22;20062;-88
2023/08/03 04:16:46;;;;;;;5.57;1.80;;;;;;;;;;6295955;22;20019;-88
2023/08/03 04:19:12;;;;;;;6.13;1.60;;;;;;;;;;6314376;22;20058;-88
2023/08/03 04:21:38;;;;;;;3.30;1.40;;;;;;;;;;6317816;22;20015;-88
2023/08/03 04:24:04;;;;;;;4.60;1.95;;;;;;;;;;6278616;22;20019;-87
2023/08/03 04:26:30;;;;;;;4.90;1.70;;;;;;;;;;6278628;22;20027;-86
2023/08/03 04:28:56;;;;;;;5.90;1.70;;;;;;;;;;6304615;22;20152;-87
2023/08/03 04:31:22;;;;;;;3.80;1.38;;;;;;;;;;6305287;22;20012;-88
2023/08/03 04:33:48;;;;;;;5.78;1.08;;;;;;;;;;6305893;22;20015;-89
2023/08/03 04:36:14;;;;;;;6.97;1.38;;;;;;;;;;6304922;22;20428;-88
2023/08/03 04:38:40;;;;;;;5.20;1.35;;;;;;;;;;6305581;22;20011;-87
2023/08/03 04:41:06;;;;;;;5.93;2.08;;;;;;;;;;6303949;22;20022;-88
2023/08/03 04:43:32;;;;;;;4.00;1.75;;;;;;;;;;6304481;22;20422;-88
2023/08/03 04:45:58;;;;;;;6.38;1.40;;;;;;;;;;6277286;22;20065;-88
2023/08/03 04:48:24;;;;;;;5.35;1.20;;;;;;;;;;6305058;22;20015;-87
2023/08/03 04:50:50;;;;;;;4.60;1.02;;;;;;;;;;6305168;22;20046;-88
2023/08/03 04:53:16;;;;;;;3.75;1.08;;;;;;;;;;6303946;22;20064;-87
2023/08/03 04:55:44;;;;;;;3.60;1.33;;;;;;;;;;6305273;22;20085;-86
2023/08/03 04:58:11;;;;;;;4.75;1.20;;;;;;;;;;6302986;22;20007;-86
2023/08/03 05:00:37;;;;;;;7.43;1.45;;;;;;;;;;6303961;22;20333;-84
2023/08/03 05:03:03;;;;;;;4.70;1.40;;;;;;;;;;6301314;22;20064;-87
2023/08/03 05:05:29;;;;;;;5.78;1.95;;;;;;;;;;6276086;22;20058;-84
2023/08/03 05:07:55;;;;;;;6.40;1.95;;;;;;;;;;6303628;22;20022;-86
2023/08/03 05:10:21;;;;;;;6.28;1.55;;;;;;;;;;6275881;22;20383;-84
2023/08/03 05:12:47;;;;;;;4.32;1.27;;;;;;;;;;6302268;22;20011;-83
2023/08/03 05:15:13;;;;;;;6.63;1.90;;;;;;;;;;6275096;22;20015;-85
2023/08/03 05:17:39;;;;;;;3.92;1.70;;;;;;;;;;6304232;22;20326;-84
2023/08/03 05:20:05;;;;;;;5.32;1.77;;;;;;;;;;6302947;22;20015;-83
2023/08/03 05:22:31;;;;;;;3.63;1.70;;;;;;;;;;6302201;22;20015;-84
2023/08/03 05:24:57;;;;;;;4.03;1.73;;;;;;;;;;6303124;22;20022;-84
2023/08/03 05:27:23;;;;;;;5.53;1.90;;;;;;;;;;6274555;22;20018;-84
2023/08/03 05:29:51;;;;;;;3.70;1.77;;;;;;;;;;6303814;22;20015;-85
2023/08/03 05:32:17;;;;;;;4.68;1.75;;;;;;;;;;6302217;22;20082;-85
2023/08/03 05:34:43;;;;;;;6.28;1.67;;;;;;;;;;6275667;22;20022;-86
2023/08/03 05:37:09;;;;;;;6.80;2.70;;;;;;;;;;6301786;22;20050;-89
2023/08/03 05:39:35;;;;;;;3.70;1.67;;;;;;;;;;6303632;22;20011;-85
2023/08/03 05:42:01;;;;;;;7.32;3.67;;;;;;;;;;6301042;22;20349;-84
2023/08/03 05:44:28;;;;;;;3.53;1.70;;;;;;;;;;6300398;22;20018;-84
2023/08/03 05:46:54;;;;;;;3.28;2.38;;;;;;;;;;6301752;22;20076;-83
2023/08/03 05:49:20;;;;;;;4.28;2.05;;;;;;;;;;6303574;22;20015;-85
2023/08/03 05:51:46;;;;;;;3.83;2.72;;;;;;;;;;6303660;22;20015;-83
2023/08/03 05:54:15;;;;;;;3.28;2.38;;;;;;;;;;6300718;22;20008;-85
2023/08/03 05:56:42;;;;;;;6.25;2.63;;;;;;;;;;6304186;22;20015;-85
2023/08/03 05:59:14;;;;;;;4.20;1.98;;;;;;;;;;6276690;22;20011;-86
2023/08/03 06:01:40;;;;;;;6.18;2.33;;;;;;;;;;6303748;22;20019;-85
2023/08/03 06:04:12;;;;;;;6.63;1.80;;;;;;;;;;6275223;22;20020;-85
2023/08/03 06:06:38;;;;;;;5.35;1.95;;;;;;;;;;6250374;22;20347;-87
2023/08/03 06:09:04;;;;;;;3.55;2.17;;;;;;;;;;6274852;22;20043;-84
2023/08/03 06:11:31;;;;;;;4.18;1.83;;;;;;;;;;6302031;22;20019;-83
2023/08/03 06:13:57;;;;;;;3.63;1.73;;;;;;;;;;6303130;22;20324;-84
2023/08/03 06:16:24;;;;;;;5.05;2.00;;;;;;;;;;6275826;22;20019;-82
2023/08/03 06:18:54;;;;;;;5.78;2.45;;;;;;;;;;6302480;22;20007;-83
2023/08/03 06:21:21;;;;;;;3.85;1.85;;;;;;;;;;6302358;22;20022;-84
2023/08/03 06:23:48;;;;;;;5.50;2.15;;;;;;;;;;6275983;22;20015;-83
2023/08/03 06:26:15;;;;;;;3.00;2.05;;;;;;;;;;6301815;22;20065;-82
2023/08/03 06:28:41;;;;;;;4.30;2.65;;;;;;;;;;6303013;22;20395;-82
2023/08/03 06:31:18;;;;;;;7.05;2.45;;;;;;;;;;6275665;22;20022;-83
2023/08/03 06:33:45;;;;;;;3.30;2.08;;;;;;;;;;6302779;22;20090;-84
2023/08/03 06:36:12;;;;;;;5.53;1.55;;;;;;;;;;6273139;22;20326;-82
2023/08/03 06:38:39;;;;;;;3.83;1.70;;;;;;;;;;6274243;22;20568;-82
2023/08/03 06:41:05;;;;;;;4.75;1.70;;;;;;;;;;6301694;22;20026;-84
2023/08/03 06:43:31;;;;;;;7.68;1.83;;;;;;;;;;6302277;22;20015;-83
2023/08/03 06:45:57;;;;;;;4.03;1.95;;;;;;;;;;6274136;22;20090;-84
2023/08/03 06:48:23;;;;;;;2.97;1.30;;;;;;;;;;6274946;22;20337;-85
2023/08/03 06:50:49;;;;;;;2.60;1.58;;;;;;;;;;6302918;22;20030;-83
2023/08/03 06:53:15;;;;;;;2.80;1.23;;;;;;;;;;6273997;22;20019;-84
2023/08/03 06:55:46;;;;;;;2.63;1.30;;;;;;;;;;6275370;22;20030;-86
2023/08/03 06:58:12;;;;;;;3.00;1.42;;;;;;;;;;6302365;22;20011;-84
2023/08/03 07:00:41;;;;;;;4.97;1.30;;;;;;;;;;6302209;22;20065;-83
2023/08/03 07:03:07;;;;;;;2.70;1.50;;;;;;;;;;6302436;22;20049;-84
2023/08/03 07:05:33;;;;;;;4.90;2.00;;;;;;;;;;6275690;22;20015;-88
2023/08/03 07:07:59;;;;;;;2.50;1.40;;;;;;;;;;6273348;22;20084;-87
2023/08/03 07:10:25;;;;;;;2.63;1.35;;;;;;;;;;6275253;22;20062;-86
2023/08/03 07:12:52;;;;;;;3.97;1.10;;;;;;;;;;6303927;22;20340;-89
2023/08/03 07:15:18;;;;;;;2.70;1.48;;;;;;;;;;6301335;22;20393;-88
2023/08/03 07:17:45;;;;;;;2.17;1.25;;;;;;;;;;6303548;22;20336;-88
2023/08/03 07:20:12;;;;;;;1.73;1.00;;;;;;;;;;6301460;22;20062;-87
2023/08/03 07:22:38;;;;;;;1.60;1.10;;;;;;;;;;6302079;22;20015;-87
2023/08/03 07:25:04;;;;;;;2.40;1.30;;;;;;;;;;6302011;22;20448;-86
2023/08/03 07:27:31;;;;;;;2.20;1.08;;;;;;;;;;6299999;22;20034;-89
2023/08/03 07:29:57;;;;;;;2.80;1.40;;;;;;;;;;6301623;22;20332;-85
2023/08/03 07:32:23;;;;;;;2.50;1.13;;;;;;;;;;6302042;22;20435;-84
2023/08/03 07:34:49;;;;;;;1.67;1.30;;;;;;;;;;6301877;22;20051;-84
2023/08/03 07:37:15;;;;;;;3.10;1.15;;;;;;;;;;6274541;22;20067;-85
2023/08/03 07:39:41;;;;;;;3.33;1.10;;;;;;;;;;6274696;22;20023;-88
2023/08/03 07:42:08;;;;;;;3.28;1.10;;;;;;;;;;6274561;22;20041;-84
2023/08/03 07:44:34;;;;;;;3.08;1.30;;;;;;;;;;6302143;22;20019;-83
2023/08/03 07:47:00;;;;;;;2.47;1.20;;;;;;;;;;6274743;22;20462;-83
2023/08/03 07:49:26;;;;;;;3.15;1.23;;;;;;;;;;6301899;22;20227;-84
2023/08/03 07:51:52;;;;;;;2.38;0.93;;;;;;;;;;6273623;22;20019;-84
2023/08/03 07:54:18;;;;;;;3.15;0.90;;;;;;;;;;6275124;22;20019;-85
2023/08/03 07:56:44;;;;;;;1.17;0.77;;;;;;;;;;6304406;22;20020;-84
2023/08/03 07:59:10;;;;;;;0.70;0.70;;;;;;;;;;6273745;22;20011;-87
2023/08/03 08:01:37;;;;;;;3.40;0.60;;;;;;;;;;6305059;22;20083;-90
2023/08/03 08:04:03;;;;;;;1.80;0.95;;;;;;;;;;6303158;22;20015;-85
2023/08/03 08:06:29;;;;;;;1.50;0.77;;;;;;;;;;6302481;22;20111;-83
2023/08/03 08:08:55;;;;;;;1.48;0.95;;;;;;;;;;6302017;22;20015;-81
2023/08/03 08:11:21;;;;;;;1.20;0.60;;;;;;;;;;6304783;22;20011;-88
2023/08/03 08:13:47;;;;;;;2.55;0.80;;;;;;;;;;6305674;22;20011;-85
2023/08/03 08:16:14;;;;;;;1.58;1.38;;;;;;;;;;6304722;22;20011;-87
2023/08/03 08:18:40;;;;;;;1.65;0.70;;;;;;;;;;6305336;22;20087;-85
2023/08/03 08:21:08;;;;;;;1.33;0.70;;;;;;;;;;6304540;22;20313;-88
2023/08/03 08:23:34;;;;;;;1.70;0.73;;;;;;;;;;6305893;22;20090;-86
2023/08/03 08:26:02;;;;;;;1.42;0.60;;;;;;;;;;6305219;22;20129;-86
2023/08/03 08:28:28;;;;;;;1.80;0.70;;;;;;;;;;6305810;22;20015;-88
2023/08/03 08:30:54;;;;;;;0.60;0.60;;;;;;;;;;6304884;22;20018;-85
2023/08/03 08:33:20;;;;;;;2.95;0.82;;;;;;;;;;6277875;22;20375;-85
2023/08/03 08:35:49;;;;;;;1.15;0.63;;;;;;;;;;6304703;22;20019;-85
2023/08/03 08:38:16;;;;;;;1.95;0.80;;;;;;;;;;6304535;22;20022;-85
2023/08/03 08:40:42;;;;;;;1.58;0.60;;;;;;;;;;6277754;22;20090;-83
2023/08/03 08:43:08;;;;;;;1.45;0.50;;;;;;;;;;6304625;22;20011;-85
2023/08/03 08:45:35;;;;;;;0.70;0.57;;;;;;;;;;6305467;22;20011;-84
2023/08/03 08:48:01;;;;;;;2.95;0.90;;;;;;;;;;6275423;22;20022;-86
2023/08/03 08:50:27;;;;;;;1.95;0.77;;;;;;;;;;6303366;22;20668;-84
2023/08/03 08:52:54;;;;;;;1.98;0.70;;;;;;;;;;6304673;22;20019;-86
2023/08/03 08:55:22;;;;;;;0.43;0.40;;;;;;;;;;6305282;22;20221;-87
2023/08/03 08:57:48;;;;;;;1.50;0.50;;;;;;;;;;6304786;22;20015;-83
2023/08/03 09:00:14;;;;;;;0.93;0.60;;;;;;;;;;6303872;22;20018;-88
2023/08/03 09:02:41;;;;;;;0.85;0.57;;;;;;;;;;6305994;22;20011;-88
2023/08/03 09:05:09;;;;;;;0.93;0.75;;;;;;;;;;6303995;22;20081;-85
2023/08/03 09:07:36;;;;;;;1.48;0.63;;;;;;;;;;6305399;22;20011;-86
2023/08/03 09:10:02;;;;;;;1.92;0.60;;;;;;;;;;6278574;22;20026;-87
2023/08/03 09:12:28;;;;;;;0.90;0.63;;;;;;;;;;6280285;22;20024;-85
2023/08/03 09:14:55;;;;;;;1.50;0.47;;;;;;;;;;6309935;22;20093;-84
2023/08/03 09:17:24;;;;;;;0.63;0.50;;;;;;;;;;6313216;22;20018;-86
2023/08/03 09:19:51;;;;;;;1.48;0.50;;;;;;;;;;6315842;22;20011;-86
2023/08/03 09:22:17;;;;;;;1.33;0.40;;;;;;;;;;6284235;22;20043;-85
2023/08/03 09:24:46;;;;;;;1.63;0.55;;;;;;;;;;6277223;22;20011;-85
2023/08/03 09:27:16;;;;;;;1.27;0.55;;;;;;;;;;6304425;22;20007;-86
2023/08/03 09:29:42;;;;;;;1.80;0.50;;;;;;;;;;6304891;22;20042;-86
2023/08/03 09:32:08;;;;;;;1.00;0.50;;;;;;;;;;6303957;22;20015;-87
2023/08/03 09:34:39;;;;;;;0.45;0.45;;;;;;;;;;6277199;22;20021;-85
2023/08/03 09:37:06;;;;;;;;;;;;;;;;;;6304605;22;20011;-86
2023/08/03 09:39:34;;;;;;;2.92;0.75;;;;;;;;;;6303441;22;19911;-86
2023/08/03 09:42:04;;;;;;;0.80;0.50;;;;;;;;;;6275538;22;20023;-84
2023/08/03 09:44:33;;;;;;;2.65;0.60;;;;;;;;;;6304293;22;20015;-85
2023/08/03 09:47:00;;;;;;;0.43;0.43;;;;;;;;;;6276792;22;20015;-86
2023/08/03 09:49:26;;;;;;;1.05;0.40;;;;;;;;;;6304350;22;20440;-86
2023/08/03 09:51:57;;;;;;;1.17;0.55;;;;;;;;;;6305230;22;20019;-85
2023/08/03 09:54:23;;;;;;;2.55;0.75;;;;;;;;;;6304509;22;20007;-86
2023/08/03 09:56:54;;;;;;;1.35;0.57;;;;;;;;;;6304626;22;20491;-85
2023/08/03 09:59:25;;;;;;;1.05;0.55;;;;;;;;;;6276694;22;20072;-87
2023/08/03 10:01:53;;;;;;;1.55;0.50;;;;;;;;;;6304120;22;20079;-85
2023/08/03 10:04:20;;;;;;;2.05;0.57;;;;;;;;;;6304149;22;20015;-86
2023/08/03 10:06:49;;;;;;;2.63;0.68;;;;;;;;;;6304476;22;20382;-86
2023/08/03 10:09:18;;;;;;;1.98;0.50;;;;;;;;;;6304288;22;20014;-87
2023/08/03 10:11:47;;;;;;;1.75;0.50;;;;;;;;;;6304359;22;20007;-85
2023/08/03 10:14:14;;;;;;;1.42;0.40;;;;;;;;;;6303567;22;20011;-85
2023/08/03 10:16:42;;;;;;;1.92;0.70;;;;;;;;;;6304121;22;20438;-86
2023/08/03 10:19:08;;;;;;;0.75;0.52;;;;;;;;;;6275464;22;20333;-86
2023/08/03 10:21:35;;;;;;;2.05;0.60;;;;;;;;;;6304225;22;20092;-86
2023/08/03 10:24:11;;;;;;;2.22;0.60;;;;;;;;;;6276471;22;20076;-86
2023/08/03 10:26:37;;;;;;;1.20;0.60;;;;;;;;;;6304189;22;20022;-86
2023/08/03 10:29:04;;;;;;;0.98;0.60;;;;;;;;;;6302325;22;20018;-85
2023/08/03 10:31:30;;;;;;;4.07;0.75;;;;;;;;;;6302623;22;20362;-84
2023/08/03 10:33:56;;;;;;;2.67;0.70;;;;;;;;;;6303378;22;20042;-84
2023/08/03 10:36:31;;;;;;;3.55;0.63;;;;;;;;;;6303747;22;20019;-85
2023/08/03 10:38:58;;;;;;;5.10;1.17;;;;;;;;;;6303599;22;20008;-89
2023/08/03 10:41:29;;;;;;;2.45;1.38;;;;;;;;;;6304705;22;20496;-86
2023/08/03 10:44:15;;;;;;;1.02;0.70;;;;;;;;;;6276160;22;20015;-87
2023/08/03 10:46:42;;;;;;;1.60;0.68;;;;;;;;;;6255276;22;20011;-87
2023/08/03 10:49:20;;;;;;;1.35;0.80;;;;;;;;;;6302730;22;20046;-88
2023/08/03 10:51:46;;;;;;;3.00;0.82;;;;;;;;;;6304690;22;20354;-87
2023/08/03 10:54:12;;;;;;;1.73;0.90;;;;;;;;;;6276083;22;20015;-85
2023/08/03 10:56:38;;;;;;;2.38;0.80;;;;;;;;;;6304573;22;20011;-87
2023/08/03 10:59:05;;;;;;;2.83;0.73;;;;;;;;;;6276650;22;20306;-86
2023/08/03 11:01:32;;;;;;;2.20;0.90;;;;;;;;;;6302637;22;20305;-85
2023/08/03 11:03:59;;;;;;;1.27;0.50;;;;;;;;;;6275277;22;20050;-86
2023/08/03 11:06:28;;;;;;;1.73;0.63;;;;;;;;;;6303308;22;20053;-86
2023/08/03 11:08:55;;;;;;;1.05;0.93;;;;;;;;;;6303903;22;20063;-96
2023/08/03 11:11:23;;;;;;;2.60;0.70;;;;;;;;;;6276045;22;20077;-93
2023/08/03 11:13:49;;;;;;;1.58;0.70;;;;;;;;;;6278361;22;20026;-89
2023/08/03 11:16:16;;;;;;;5.03;1.02;;;;;;;;;;6275690;22;20011;-90
2023/08/03 11:18:45;;;;;;;1.45;0.82;;;;;;;;;;6305251;22;20022;-91
2023/08/03 11:21:11;;;;;;;4.03;0.80;;;;;;;;;;6304017;22;20015;-89
2023/08/03 11:23:37;;;;;;;2.20;0.85;;;;;;;;;;6276689;22;20052;-90
2023/08/03 11:26:06;;;;;;;3.08;0.93;;;;;;;;;;6303819;22;20046;-93
2023/08/03 11:28:42;;;;;;;2.13;0.88;;;;;;;;;;6305150;22;20015;-91
2023/08/03 11:31:15;;;;;;;2.10;0.52;;;;;;;;;;6306131;22;20015;-92
2023/08/03 11:33:42;;;;;;;0.57;0.57;;;;;;;;;;6307354;22;20037;-90
2023/08/03 11:36:09;;;;;;;1.58;0.50;;;;;;;;;;6306208;22;20369;-87
2023/08/03 11:38:36;;;;;;;1.17;0.60;;;;;;;;;;6307141;22;20117;-89
2023/08/03 11:41:02;;;;;;;1.23;0.40;;;;;;;;;;6305010;22;20019;-90
2023/08/03 11:43:28;;;;;;;0.57;0.50;;;;;;;;;;6278477;22;20026;-88
2023/08/03 11:45:56;;;;;;;2.22;0.70;;;;;;;;;;6277707;22;20015;-92
2023/08/03 11:48:26;;;;;;;1.80;0.60;;;;;;;;;;6277597;22;20015;-89
2023/08/03 11:50:52;;;;;;;1.20;0.52;;;;;;;;;;6305449;22;20007;-86
2023/08/03 11:53:24;;;;;;;1.52;0.52;;;;;;;;;;6305721;22;20086;-90
2023/08/03 11:55:50;;;;;;;3.83;0.88;;;;;;;;;;6306812;22;20401;-89
2023/08/03 11:58:17;;;;;;;2.78;0.55;;;;;;;;;;6305620;22;20008;-91
2023/08/03 12:00:44;;;;;;;1.63;0.60;;;;;;;;;;6307906;22;20015;-88
2023/08/03 12:03:10;;;;;;;1.15;0.60;;;;;;;;;;6305681;22;20015;-90
2023/08/03 12:05:43;;;;;;;1.38;0.50;;;;;;;;;;6306454;22;20011;-92
2023/08/03 12:08:10;;;;;;;2.10;0.40;;;;;;;;;;6305735;22;20582;-87
2023/08/03 12:10:36;;;;;;;2.65;0.52;;;;;;;;;;6273179;22;20011;-88
2023/08/03 12:13:02;;;;;;;3.95;0.68;;;;;;;;;;6276980;22;20019;-91
2023/08/03 12:15:28;;;;;;;1.83;0.43;;;;;;;;;;6304406;22;20096;-90
2023/08/03 12:17:54;;;;;;;0.73;0.55;;;;;;;;;;6278578;22;20019;-89
2023/08/03 12:20:20;;;;;;;1.88;0.50;;;;;;;;;;6305857;22;20074;-89
2023/08/03 12:22:46;;;;;;;1.33;0.50;;;;;;;;;;6306608;22;20435;-88
2023/08/03 12:25:12;;;;;;;3.45;0.50;;;;;;;;;;6305353;22;20086;-91
2023/08/03 12:27:38;;;;;;;1.55;0.52;;;;;;;;;;6305508;22;20578;-88
2023/08/03 12:30:04;;;;;;;1.58;0.50;;;;;;;;;;6305028;22;20083;-89
2023/08/03 12:32:30;;;;;;;1.35;0.63;;;;;;;;;;6304836;22;20398;-87
2023/08/03 12:34:56;;;;;;;2.15;0.60;;;;;;;;;;6305149;22;20082;-90
2023/08/03 12:37:22;;;;;;;3.63;1.10;;;;;;;;;;6278326;22;20371;-88
2023/08/03 12:39:48;;;;;;;2.25;0.70;;;;;;;;;;6277161;22;20011;-88
2023/08/03 12:42:14;;;;;;;2.15;1.00;;;;;;;;;;6304714;22;20026;-92
2023/08/03 12:44:40;;;;;;;2.60;0.60;;;;;;;;;;6279178;22;20011;-88
2023/08/03 12:47:06;;;;;;;4.22;1.05;;;;;;;;;;6306097;22;20337;-95
2023/08/03 12:49:36;;;;;;;1.85;0.90;;;;;;;;;;6303804;22;20327;-91
2023/08/03 12:52:02;;;;;;;2.50;0.93;;;;;;;;;;6304178;22;20086;-88
2023/08/03 12:54:28;;;;;;;2.80;0.80;;;;;;;;;;6251727;22;20407;-89
2023/08/03 12:56:54;;;;;;;2.78;0.60;;;;;;;;;;6278555;22;20019;-88
2023/08/03 12:59:20;;;;;;;3.55;0.65;;;;;;;;;;6252139;22;20157;-87
2023/08/03 13:01:46;;;;;;;1.48;0.70;;;;;;;;;;6277288;22;20054;-86
2023/08/03 13:04:12;;;;;;;2.92;0.80;;;;;;;;;;6303868;22;20030;-89
2023/08/03 13:06:38;;;;;;;1.70;0.52;;;;;;;;;;6279073;22;20019;-89
2023/08/03 13:09:04;;;;;;;1.92;0.70;;;;;;;;;;6276984;22;20012;-86
2023/08/03 13:11:30;;;;;;;2.15;0.90;;;;;;;;;;6251680;22;20090;-87
2023/08/03 13:13:56;;;;;;;3.35;0.88;;;;;;;;;;6304673;22;20019;-87
2023/08/03 13:16:22;;;;;;;3.20;1.10;;;;;;;;;;6278828;22;20007;-90
2023/08/03 13:18:49;;;;;;;3.67;0.95;;;;;;;;;;6278944;22;20015;-90
2023/08/03 13:21:16;;;;;;;2.55;0.90;;;;;;;;;;6306612;22;20015;-91
2023/08/03 13:23:42;;;;;;;2.88;0.95;;;;;;;;;;6277541;22;20038;-93
2023/08/03 13:26:08;;;;;;;3.80;1.10;;;;;;;;;;6278246;22;20015;-85
2023/08/03 13:28:34;;;;;;;3.70;0.90;;;;;;;;;;6315306;22;20036;-86
2023/08/03 13:31:00;;;;;;;2.17;0.82;;;;;;;;;;6293147;22;20098;-87
2023/08/03 13:33:26;;;;;;;5.05;1.10;;;;;;;;;;6321938;22;20055;-91
2023/08/03 13:35:52;;;;;;;3.67;1.08;;;;;;;;;;6294694;22;20343;-89
2023/08/03 13:38:18;;;;;;;3.15;0.98;;;;;;;;;;6306003;22;20015;-91
2023/08/03 13:40:44;;;;;;;0.93;0.57;;;;;;;;;;6278238;22;20094;-90
2023/08/03 13:43:10;;;;;;;2.20;1.00;;;;;;;;;;6305470;22;20061;-91
2023/08/03 13:45:36;;;;;;;2.17;1.02;;;;;;;;;;6279677;22;20042;-87
2023/08/03 13:48:02;;;;;;;1.70;0.90;;;;;;;;;;6305409;22;20016;-85
2023/08/03 13:50:29;;;;;;;2.08;0.98;;;;;;;;;;6305287;22;20038;-84
2023/08/03 13:52:55;;;;;;;3.53;1.10;;;;;;;;;;6277119;22;20018;-84
2023/08/03 13:55:21;;;;;;;5.32;1.33;;;;;;;;;;6275976;22;20008;-86
2023/08/03 13:57:47;;;;;;;4.88;1.27;;;;;;;;;;6305144;22;20117;-85
2023/08/03 14:00:13;;;;;;;3.47;1.40;;;;;;;;;;6276805;22;20455;-87
2023/08/03 14:02:39;;;;;;;5.43;1.70;;;;;;;;;;6305264;22;20470;-86
2023/08/03 14:05:05;;;;;;;2.60;1.33;;;;;;;;;;6305024;22;20015;-89
2023/08/03 14:07:31;;;;;;;4.07;1.50;;;;;;;;;;6277583;22;20144;-90
2023/08/03 14:10:00;;;;;;;4.60;1.45;;;;;;;;;;6276332;22;20019;-87
2023/08/03 14:12:26;;;;;;;5.70;1.85;;;;;;;;;;6304096;22;20086;-87
2023/08/03 14:14:52;;;;;;;5.78;1.45;;;;;;;;;;6304621;22;20020;-86
2023/08/03 14:17:18;;;;;;;6.07;1.92;;;;;;;;;;6304627;22;20086;-88
2023/08/03 14:19:44;;;;;;;7.85;1.73;;;;;;;;;;6304987;22;20011;-85
2023/08/03 14:22:10;;;;;;;3.75;1.65;;;;;;;;;;6276174;22;20015;-90
2023/08/03 14:24:36;;;;;;;4.10;1.70;;;;;;;;;;6276392;22;20019;-88
2023/08/03 14:27:02;;;;;;;5.25;1.52;;;;;;;;;;6277261;22;20019;-90
2023/08/03 14:29:28;;;;;;;3.15;1.60;;;;;;;;;;6305641;22;20026;-89
2023/08/03 14:31:54;;;;;;;4.78;2.00;;;;;;;;;;6279279;22;20007;-86
2023/08/03 14:34:21;;;;;;;5.07;1.60;;;;;;;;;;6307044;22;20012;-85
2023/08/03 14:36:47;;;;;;;4.20;1.85;;;;;;;;;;6308008;22;20018;-86
2023/08/03 14:39:13;;;;;;;2.72;1.70;;;;;;;;;;6309258;22;20152;-84